createdAt,value
2022-11-12T00:01:14.560Z,2.70
2022-11-12T00:04:56.797Z,2.63
2022-11-12T00:08:39.512Z,2.13
2022-11-12T00:12:23.030Z,2.97
2022-11-12T00:16:06.391Z,3.10
2022-11-12T00:19:49.108Z,2.63
2022-11-12T00:23:31.332Z,4.50
2022-11-12T00:27:14.053Z,3.27
2022-11-12T00:30:57.585Z,3.40
2022-11-12T00:34:40.209Z,2.20
2022-11-12T00:38:22.218Z,2.70
2022-11-12T00:42:04.959Z,2.23
2022-11-12T00:45:47.000Z,2.57
2022-11-12T00:49:30.607Z,3.00
2022-11-12T00:53:12.904Z,2.33
2022-11-12T00:56:55.092Z,5.27
2022-11-12T01:00:37.289Z,2.30
2022-11-12T01:04:19.784Z,2.40
2022-11-12T01:08:03.211Z,2.33
2022-11-12T01:11:45.295Z,2.40
2022-11-12T01:15:27.550Z,2.77
2022-11-12T01:19:12.547Z,2.10
2022-11-12T01:22:54.866Z,2.47
2022-11-12T01:26:39.578Z,2.27
2022-11-12T01:30:21.384Z,2.67
2022-11-12T01:34:07.251Z,2.17
2022-11-12T01:37:49.172Z,2.50
2022-11-12T01:41:35.967Z,2.23
2022-11-12T01:45:19.163Z,2.47
2022-11-12T01:49:07.314Z,2.97
2022-11-12T01:52:57.439Z,2.63
2022-11-12T01:56:42.479Z,5.77
2022-11-12T02:00:26.356Z,2.50
2022-11-12T02:04:08.712Z,2.00
2022-11-12T02:07:53.517Z,2.40
2022-11-12T02:11:35.539Z,3.03
2022-11-12T02:15:17.052Z,2.30
2022-11-12T02:19:00.511Z,2.20
2022-11-12T02:22:43.860Z,2.73
2022-11-12T02:26:27.199Z,4.03
2022-11-12T02:30:10.128Z,2.07
2022-11-12T02:33:52.403Z,2.40
2022-11-12T02:37:34.298Z,2.50
2022-11-12T02:41:18.279Z,2.27
2022-11-12T02:45:00.334Z,2.70
2022-11-12T02:48:42.790Z,2.10
2022-11-12T02:52:24.724Z,2.30
2022-11-12T02:56:07.763Z,1.80
2022-11-12T02:59:50.928Z,2.13
2022-11-12T03:03:32.739Z,2.50
2022-11-12T03:07:14.778Z,2.40
2022-11-12T03:10:56.965Z,2.60
2022-11-12T03:14:39.215Z,2.43
2022-11-12T03:18:22.895Z,3.20
2022-11-12T03:22:04.976Z,2.60
2022-11-12T03:25:47.423Z,2.50
2022-11-12T03:29:29.579Z,2.67
2022-11-12T03:33:14.947Z,3.20
2022-11-12T03:36:58.616Z,2.10
2022-11-12T03:40:40.512Z,2.27
2022-11-12T03:44:22.846Z,2.30
2022-11-12T03:48:05.424Z,2.30
2022-11-12T03:51:47.788Z,2.33
2022-11-12T03:55:31.662Z,2.10
2022-11-12T03:59:13.826Z,2.10
2022-11-12T04:02:56.138Z,2.50
2022-11-12T04:06:55.637Z,3.50
2022-11-12T04:10:39.209Z,2.83
2022-11-12T04:14:21.356Z,2.10
2022-11-12T04:18:21.129Z,2.30
2022-11-12T04:22:07.816Z,2.43
2022-11-12T04:26:08.525Z,2.23
2022-11-12T04:30:09.534Z,2.87
2022-11-12T04:33:51.560Z,2.13
2022-11-12T04:37:45.209Z,2.07
2022-11-12T04:41:45.957Z,2.63
2022-11-12T04:45:28.302Z,2.10
2022-11-12T04:49:10.522Z,2.30
2022-11-12T04:52:52.677Z,2.17
2022-11-12T04:56:36.056Z,1.97
2022-11-12T05:00:19.036Z,1.87
2022-11-12T05:04:01.290Z,1.73
2022-11-12T05:07:43.604Z,2.00
2022-11-12T05:11:25.647Z,2.10
2022-11-12T05:15:11.666Z,1.90
2022-11-12T05:18:53.604Z,3.20
2022-11-12T05:22:45.721Z,1.80
2022-11-12T05:26:30.423Z,2.00
2022-11-12T05:30:15.476Z,2.00
2022-11-12T05:33:57.925Z,1.90
2022-11-12T05:37:39.904Z,2.30
2022-11-12T05:41:22.020Z,2.10
2022-11-12T05:45:04.616Z,2.10
2022-11-12T05:48:48.194Z,2.30
2022-11-12T05:52:30.076Z,2.33
2022-11-12T05:56:13.295Z,2.70
2022-11-12T05:59:55.504Z,1.80
2022-11-12T06:03:37.771Z,2.30
2022-11-12T06:07:21.604Z,2.23
2022-11-12T06:11:03.470Z,1.70
2022-11-12T06:14:45.580Z,2.10
2022-11-12T06:18:28.511Z,2.00
2022-11-12T06:22:10.771Z,2.30
2022-11-12T06:25:54.123Z,1.60
2022-11-12T06:29:35.953Z,1.50
2022-11-12T06:33:18.253Z,1.90
2022-11-12T06:37:00.450Z,1.90
2022-11-12T06:40:43.529Z,2.10
2022-11-12T06:44:27.067Z,2.00
2022-11-12T06:48:09.041Z,2.03
2022-11-12T06:51:52.359Z,2.23
2022-11-12T06:55:34.536Z,2.20
2022-11-12T06:59:16.760Z,2.47
2022-11-12T07:03:00.103Z,2.50
2022-11-12T07:06:42.324Z,1.97
2022-11-12T07:10:24.476Z,2.10
2022-11-12T07:14:07.380Z,1.97
2022-11-12T07:17:49.674Z,1.90
2022-11-12T07:21:33.329Z,1.80
2022-11-12T07:25:15.527Z,2.10
2022-11-12T07:28:57.487Z,1.67
2022-11-12T07:32:44.222Z,2.20
2022-11-12T07:36:29.353Z,1.97
2022-11-12T07:40:13.895Z,1.70
2022-11-12T07:43:56.176Z,2.37
2022-11-12T07:47:38.322Z,1.70
2022-11-12T07:51:23.953Z,2.00
2022-11-12T07:55:07.468Z,1.80
2022-11-12T07:58:52.307Z,1.33
2022-11-12T08:02:34.329Z,1.70
2022-11-12T08:06:17.120Z,2.20
2022-11-12T08:10:00.222Z,2.53
2022-11-12T08:13:42.207Z,2.37
2022-11-12T08:17:25.484Z,2.00
2022-11-12T08:21:11.816Z,2.20
2022-11-12T08:24:54.822Z,2.27
2022-11-12T08:28:38.890Z,2.60
2022-11-12T08:32:21.516Z,2.07
2022-11-12T08:36:06.798Z,2.33
2022-11-12T08:39:48.765Z,2.10
2022-11-12T08:43:31.385Z,2.27
2022-11-12T08:47:13.759Z,3.10
2022-11-12T08:50:56.465Z,2.10
2022-11-12T08:54:39.782Z,2.37
2022-11-12T08:58:22.540Z,2.63
2022-11-12T09:02:06.139Z,2.20
2022-11-12T09:05:49.104Z,2.47
2022-11-12T09:09:31.065Z,2.50
2022-11-12T09:13:15.137Z,2.00
2022-11-12T09:16:57.095Z,2.10
2022-11-12T09:20:39.245Z,2.33
2022-11-12T09:24:21.538Z,2.60
2022-11-12T09:28:12.012Z,2.40
2022-11-12T09:31:55.603Z,2.43
2022-11-12T09:35:37.857Z,2.60
2022-11-12T09:39:20.031Z,2.57
2022-11-12T09:43:02.245Z,2.40
2022-11-12T09:46:50.933Z,2.47
2022-11-12T09:50:43.666Z,3.00
2022-11-12T09:54:28.969Z,3.07
2022-11-12T09:58:14.365Z,2.97
2022-11-12T10:02:07.541Z,2.47
2022-11-12T10:05:59.260Z,2.40
2022-11-12T10:09:58.977Z,2.60
2022-11-12T10:14:01.465Z,2.60
2022-11-12T10:17:52.585Z,2.57
2022-11-12T10:21:47.541Z,2.37
2022-11-12T10:25:29.396Z,2.70
2022-11-12T10:29:26.322Z,3.13
2022-11-12T10:33:14.848Z,3.77
2022-11-12T10:37:04.260Z,3.67
2022-11-12T10:40:46.280Z,3.97
2022-11-12T10:44:28.820Z,3.30
2022-11-12T10:48:28.756Z,3.70
2022-11-12T10:52:24.274Z,3.43
2022-11-12T10:56:25.318Z,3.63
2022-11-12T11:00:17.008Z,3.63
2022-11-12T11:03:59.990Z,3.67
2022-11-12T11:07:51.148Z,3.30
2022-11-12T11:11:34.321Z,3.27
2022-11-12T11:15:23.336Z,3.33
2022-11-12T11:19:08.570Z,3.10
2022-11-12T11:22:58.410Z,3.40
2022-11-12T11:26:56.492Z,2.93
2022-11-12T11:30:52.137Z,2.93
2022-11-12T11:34:51.697Z,3.20
2022-11-12T11:38:53.894Z,2.70
2022-11-12T11:43:04.675Z,2.37
2022-11-12T11:47:04.804Z,2.37
2022-11-12T11:51:01.105Z,2.60
2022-11-12T11:55:09.532Z,3.30
2022-11-12T11:59:34.388Z,3.40
2022-11-12T12:03:31.772Z,4.13
2022-11-12T12:07:30.197Z,3.10
2022-11-12T12:11:23.633Z,3.53
2022-11-12T12:15:39.826Z,2.53
2022-11-12T12:19:48.115Z,2.47
2022-11-12T12:23:39.088Z,3.57
2022-11-12T12:27:27.125Z,4.27
2022-11-12T12:31:17.413Z,2.83
2022-11-12T12:35:23.917Z,3.40
2022-11-12T12:39:18.907Z,3.50
2022-11-12T12:43:11.976Z,2.67
2022-11-12T12:46:59.958Z,2.27
2022-11-12T12:50:43.981Z,2.47
2022-11-12T12:54:57.952Z,2.93
2022-11-12T12:58:47.144Z,2.73
2022-11-12T13:02:29.213Z,2.73
2022-11-12T13:06:23.107Z,2.50
2022-11-12T13:10:49.516Z,2.27
2022-11-12T13:15:42.397Z,2.70
2022-11-12T13:19:29.706Z,2.33
2022-11-12T13:23:59.755Z,2.20
2022-11-12T13:28:12.090Z,2.40
2022-11-12T13:32:36.923Z,2.30
2022-11-12T13:36:29.298Z,2.67
2022-11-12T13:40:17.155Z,2.40
2022-11-12T13:43:59.570Z,2.40
2022-11-12T13:47:44.263Z,2.77
2022-11-12T13:51:38.955Z,2.67
2022-11-12T13:55:23.818Z,2.70
2022-11-12T13:59:18.179Z,2.53
2022-11-12T14:03:07.038Z,3.00
2022-11-12T14:06:52.983Z,2.40
2022-11-12T14:10:45.869Z,2.40
2022-11-12T14:14:53.143Z,2.50
2022-11-12T14:18:59.657Z,2.50
2022-11-12T14:22:44.040Z,2.03
2022-11-12T14:26:39.833Z,2.83
2022-11-12T14:30:25.739Z,2.30
2022-11-12T14:34:23.590Z,2.20
2022-11-12T14:38:19.354Z,2.60
2022-11-12T14:42:01.731Z,2.73
2022-11-12T14:45:49.988Z,2.23
2022-11-12T14:49:44.430Z,2.57
2022-11-12T14:53:33.892Z,2.17
2022-11-12T14:57:23.369Z,2.30
2022-11-12T15:02:13.927Z,2.17
2022-11-12T15:05:32.764Z,2.13
2022-11-12T15:09:21.686Z,2.90
2022-11-12T15:13:08.191Z,2.87
2022-11-12T15:16:51.043Z,2.80
2022-11-12T15:20:34.753Z,2.23
2022-11-12T15:24:27.910Z,2.23
2022-11-12T15:28:15.529Z,2.00
2022-11-12T15:32:02.040Z,2.13
2022-11-12T15:35:46.285Z,2.37
2022-11-12T15:39:30.297Z,2.40
2022-11-12T15:43:21.380Z,3.00
2022-11-12T15:47:04.762Z,2.63
2022-11-12T15:50:48.619Z,3.90
2022-11-12T15:54:30.973Z,3.30
2022-11-12T15:58:19.647Z,3.90
2022-11-12T16:02:01.765Z,3.40
2022-11-12T16:05:44.565Z,3.40
2022-11-12T16:09:28.078Z,2.83
2022-11-12T16:13:16.201Z,3.13
2022-11-12T16:16:58.671Z,3.23
2022-11-12T16:20:40.674Z,2.67
2022-11-12T16:24:22.759Z,2.60
2022-11-12T16:28:15.271Z,3.13
2022-11-12T16:31:57.331Z,4.83
2022-11-12T16:35:40.034Z,2.60
2022-11-12T16:39:22.474Z,3.17
2022-11-12T16:43:05.870Z,2.90
2022-11-12T16:46:48.193Z,2.80
2022-11-12T16:50:30.271Z,2.70
2022-11-12T16:54:12.606Z,2.80
2022-11-12T16:57:54.748Z,2.80
2022-11-12T17:01:38.212Z,3.07
2022-11-12T17:05:24.293Z,2.90
2022-11-12T17:09:07.431Z,2.60
2022-11-12T17:12:50.360Z,2.60
2022-11-12T17:16:33.591Z,2.87
2022-11-12T17:20:17.459Z,2.63
2022-11-12T17:23:59.697Z,7.33
2022-11-12T17:27:41.647Z,5.53
2022-11-12T17:31:24.854Z,3.77
2022-11-12T17:35:08.502Z,3.70
2022-11-12T17:38:55.532Z,3.87
2022-11-12T17:42:37.714Z,2.97
2022-11-12T17:46:19.840Z,2.90
2022-11-12T17:50:02.044Z,3.00
2022-11-12T17:53:44.846Z,3.10
2022-11-12T17:57:28.348Z,2.60
2022-11-12T18:01:13.942Z,3.10
2022-11-12T18:04:56.448Z,3.30
2022-11-12T18:08:38.831Z,3.37
2022-11-12T18:12:20.898Z,2.97
2022-11-12T18:16:14.870Z,3.30
2022-11-12T18:19:56.956Z,3.67
2022-11-12T18:23:40.268Z,5.10
2022-11-12T18:27:22.912Z,4.40
2022-11-12T18:31:09.289Z,3.40
2022-11-12T18:34:51.915Z,3.93
2022-11-12T18:38:35.478Z,3.90
2022-11-12T18:42:17.934Z,5.70
2022-11-12T18:46:01.333Z,3.33
2022-11-12T18:49:45.051Z,3.90
2022-11-12T18:53:27.608Z,3.90
2022-11-12T18:57:09.813Z,3.23
2022-11-12T19:00:52.244Z,3.87
2022-11-12T19:04:35.100Z,3.80
2022-11-12T19:08:19.360Z,3.43
2022-11-12T19:12:01.461Z,4.90
2022-11-12T19:15:43.487Z,6.57
2022-11-12T19:19:25.746Z,7.13
2022-11-12T19:23:08.018Z,6.90
2022-11-12T19:26:51.510Z,6.33
2022-11-12T19:30:33.879Z,5.80
2022-11-12T19:34:15.944Z,4.90
2022-11-12T19:37:58.076Z,4.47
2022-11-12T19:41:40.092Z,5.33
2022-11-12T19:45:23.412Z,4.63
2022-11-12T19:49:05.538Z,4.47
2022-11-12T19:52:47.859Z,3.60
2022-11-12T19:56:30.619Z,3.97
2022-11-12T20:00:14.554Z,4.40
2022-11-12T20:03:58.169Z,4.27
2022-11-12T20:07:40.226Z,3.63
2022-11-12T20:11:22.384Z,3.77
2022-11-12T20:15:05.235Z,3.80
2022-11-12T20:18:50.995Z,4.00
2022-11-12T20:22:35.745Z,4.10
2022-11-12T20:26:18.061Z,2.83
2022-11-12T20:30:00.087Z,3.20
2022-11-12T20:33:43.092Z,4.03
2022-11-12T20:37:25.789Z,3.40
2022-11-12T20:41:15.490Z,4.23
2022-11-12T20:44:57.462Z,3.63
2022-11-12T20:48:43.455Z,3.23
2022-11-12T20:52:26.192Z,3.30
2022-11-12T20:56:13.227Z,3.07
2022-11-12T20:59:55.829Z,3.00
2022-11-12T21:03:40.182Z,3.20
2022-11-12T21:07:22.488Z,3.43
2022-11-12T21:11:09.940Z,3.20
2022-11-12T21:14:51.982Z,3.13
2022-11-12T21:18:37.322Z,3.17
2022-11-12T21:22:19.823Z,3.17
2022-11-12T21:26:07.741Z,3.50
2022-11-12T21:29:51.202Z,3.63
2022-11-12T21:33:33.255Z,3.10
2022-11-12T21:37:15.200Z,4.60
2022-11-12T21:41:06.785Z,9.70
2022-11-12T21:44:50.270Z,9.52
2022-11-12T21:48:32.338Z,5.70
2022-11-12T21:52:14.453Z,5.23
2022-11-12T21:56:03.534Z,4.83
2022-11-12T21:59:46.424Z,4.23
2022-11-12T22:03:32.730Z,4.37
2022-11-12T22:07:14.853Z,3.77
2022-11-12T22:11:03.305Z,3.70
2022-11-12T22:14:45.397Z,3.97
2022-11-12T22:18:27.830Z,8.60
2022-11-12T22:22:11.602Z,4.10
2022-11-12T22:25:57.685Z,4.10
2022-11-12T22:29:39.582Z,4.00
2022-11-12T22:33:21.969Z,3.33
2022-11-12T22:37:03.893Z,3.57
2022-11-12T22:40:47.398Z,3.37
2022-11-12T22:44:29.222Z,7.80
2022-11-12T22:48:11.265Z,3.63
2022-11-12T22:51:53.434Z,4.17
2022-11-12T22:55:35.638Z,4.47
2022-11-12T22:59:19.038Z,3.83
2022-11-12T23:03:01.105Z,5.03
2022-11-12T23:06:43.413Z,4.80
2022-11-12T23:10:25.499Z,4.07
2022-11-12T23:14:07.623Z,4.20
2022-11-12T23:17:51.073Z,4.33
2022-11-12T23:21:33.282Z,3.50
2022-11-12T23:25:15.637Z,3.80
2022-11-12T23:28:58.313Z,3.83
2022-11-12T23:32:40.019Z,3.87
2022-11-12T23:36:26.173Z,3.43
2022-11-12T23:40:10.324Z,3.90
2022-11-12T23:43:52.966Z,3.00
2022-11-12T23:47:34.977Z,4.93
2022-11-12T23:51:19.632Z,4.20
2022-11-12T23:55:03.304Z,3.10
2022-11-12T23:58:45.324Z,2.70
